createdAt,value
2023-04-14T00:02:08.653Z,8.47
2023-04-14T00:04:35.917Z,7.77
2023-04-14T00:07:02.966Z,5.80
2023-04-14T00:09:30.084Z,6.00
2023-04-14T00:11:57.640Z,9.57
2023-04-14T00:14:24.392Z,7.53
2023-04-14T00:16:51.310Z,7.10
2023-04-14T00:19:18.239Z,6.07
2023-04-14T00:21:44.942Z,4.30
2023-04-14T00:24:11.631Z,5.43
2023-04-14T00:26:38.582Z,6.87
2023-04-14T00:29:05.419Z,5.80
2023-04-14T00:31:32.440Z,5.67
2023-04-14T00:34:00.773Z,4.87
2023-04-14T00:36:27.484Z,6.27
2023-04-14T00:38:54.191Z,6.80
2023-04-14T00:41:20.890Z,10.03
2023-04-14T00:43:47.556Z,4.80
2023-04-14T00:46:17.283Z,7.73
2023-04-14T00:48:44.518Z,3.63
2023-04-14T00:51:11.816Z,6.67
2023-04-14T00:53:40.919Z,19.47
2023-04-14T00:56:08.203Z,13.23
2023-04-14T00:58:35.612Z,7.17
2023-04-14T01:01:03.014Z,7.93
2023-04-14T01:03:29.944Z,4.53
2023-04-14T01:05:58.145Z,6.50
2023-04-14T01:08:25.670Z,6.47
2023-04-14T01:11:06.637Z,8.53
2023-04-14T01:13:53.702Z,10.90
2023-04-14T01:16:31.831Z,8.57
2023-04-14T01:19:20.620Z,9.33
2023-04-14T01:21:55.010Z,8.27
2023-04-14T01:24:52.272Z,9.20
2023-04-14T01:27:38.529Z,10.57
2023-04-14T01:30:20.700Z,8.50
2023-04-14T01:32:49.987Z,9.33
2023-04-14T01:35:26.066Z,7.40
2023-04-14T01:37:56.117Z,8.03
2023-04-14T01:40:27.726Z,12.43
2023-04-14T01:43:04.363Z,7.90
2023-04-14T01:45:39.588Z,9.67
2023-04-14T01:48:07.966Z,7.20
2023-04-14T01:50:36.534Z,9.10
2023-04-14T01:53:06.776Z,6.67
2023-04-14T01:55:37.658Z,9.37
2023-04-14T01:58:06.693Z,9.80
2023-04-14T02:00:36.025Z,7.57
2023-04-14T02:03:04.868Z,9.20
2023-04-14T02:05:34.785Z,12.97
2023-04-14T02:08:06.134Z,6.53
2023-04-14T02:10:33.997Z,7.37
2023-04-14T02:13:04.644Z,9.20
2023-04-14T02:15:32.257Z,4.83
2023-04-14T02:18:00.668Z,7.50
2023-04-14T02:20:28.694Z,6.67
2023-04-14T02:22:55.738Z,5.27
2023-04-14T02:25:25.639Z,6.00
2023-04-14T02:28:00.237Z,10.50
2023-04-14T02:30:33.914Z,9.53
2023-04-14T02:33:12.205Z,5.80
2023-04-14T02:35:48.431Z,6.13
2023-04-14T02:38:33.338Z,7.30
2023-04-14T02:41:02.555Z,6.87
2023-04-14T02:43:36.876Z,6.87
2023-04-14T02:46:06.303Z,5.30
2023-04-14T02:48:35.845Z,6.97
2023-04-14T02:51:05.067Z,5.50
2023-04-14T02:53:34.406Z,4.97
2023-04-14T02:56:11.999Z,5.40
2023-04-14T02:58:42.724Z,7.90
2023-04-14T03:01:10.995Z,6.60
2023-04-14T03:03:38.408Z,5.80
2023-04-14T03:06:09.239Z,6.70
2023-04-14T03:08:37.460Z,6.27
2023-04-14T03:11:05.661Z,9.80
2023-04-14T03:13:34.479Z,8.03
2023-04-14T03:16:03.441Z,8.13
2023-04-14T03:18:32.237Z,6.40
2023-04-14T03:21:02.267Z,9.73
2023-04-14T03:23:31.854Z,9.73
2023-04-14T03:26:03.415Z,8.47
2023-04-14T03:28:34.100Z,5.73
2023-04-14T03:31:06.162Z,8.07
2023-04-14T03:33:43.717Z,6.87
2023-04-14T03:36:15.029Z,8.13
2023-04-14T03:38:42.476Z,10.23
2023-04-14T03:41:10.437Z,13.20
2023-04-14T03:43:39.781Z,7.40
2023-04-14T03:46:11.135Z,6.77
2023-04-14T03:48:42.546Z,6.90
2023-04-14T03:51:13.900Z,7.97
2023-04-14T03:53:43.153Z,8.83
2023-04-14T03:56:13.434Z,6.70
2023-04-14T03:58:43.927Z,7.73
2023-04-14T04:01:12.311Z,6.80
2023-04-14T04:03:40.858Z,8.50
2023-04-14T04:06:08.157Z,7.23
2023-04-14T04:08:36.367Z,10.27
2023-04-14T04:11:07.307Z,6.87
2023-04-14T04:13:36.729Z,6.53
2023-04-14T04:16:07.037Z,9.17
2023-04-14T04:18:38.117Z,8.60
2023-04-14T04:21:07.158Z,7.10
2023-04-14T04:23:37.228Z,10.70
2023-04-14T04:26:04.360Z,6.53
2023-04-14T04:28:36.935Z,5.87
2023-04-14T04:31:06.239Z,6.53
2023-04-14T04:33:34.415Z,7.20
2023-04-14T04:36:01.995Z,7.90
2023-04-14T04:38:35.603Z,7.73
2023-04-14T04:41:02.448Z,9.00
2023-04-14T04:43:31.596Z,7.73
2023-04-14T04:45:58.358Z,8.17
2023-04-14T04:48:26.200Z,9.00
2023-04-14T04:50:52.852Z,8.30
2023-04-14T04:53:19.596Z,7.80
2023-04-14T04:55:46.266Z,7.47
2023-04-14T04:58:12.962Z,8.73
2023-04-14T05:00:39.886Z,8.50
2023-04-14T05:03:06.772Z,7.03
2023-04-14T05:05:37.142Z,9.03
2023-04-14T05:08:03.973Z,9.90
2023-04-14T05:10:30.749Z,11.70
2023-04-14T05:12:57.458Z,9.93
2023-04-14T05:15:24.055Z,8.80
2023-04-14T05:17:50.956Z,9.13
2023-04-14T05:20:17.666Z,11.47
2023-04-14T05:22:44.251Z,8.27
2023-04-14T05:25:10.830Z,9.87
2023-04-14T05:27:37.457Z,9.80
2023-04-14T05:30:07.248Z,8.80
2023-04-14T05:32:33.920Z,7.50
2023-04-14T05:35:00.589Z,9.00
2023-04-14T05:37:29.840Z,8.73
2023-04-14T05:39:56.577Z,9.33
2023-04-14T05:42:23.507Z,7.97
2023-04-14T05:44:50.149Z,7.23
2023-04-14T05:47:16.794Z,13.23
2023-04-14T05:49:43.443Z,9.70
2023-04-14T05:52:10.406Z,8.30
2023-04-14T05:54:37.052Z,8.73
2023-04-14T05:57:03.864Z,10.80
2023-04-14T05:59:30.592Z,11.03
2023-04-14T06:01:57.279Z,7.00
2023-04-14T06:04:26.612Z,9.43
2023-04-14T06:06:53.297Z,7.33
2023-04-14T06:09:19.888Z,8.97
2023-04-14T06:11:46.647Z,10.23
2023-04-14T06:14:13.337Z,10.17
2023-04-14T06:16:39.946Z,7.30
2023-04-14T06:19:06.550Z,9.33
2023-04-14T06:21:33.281Z,9.00
2023-04-14T06:23:59.911Z,11.23
2023-04-14T06:26:26.590Z,7.77
2023-04-14T06:28:53.653Z,9.87
2023-04-14T06:31:20.700Z,11.13
2023-04-14T06:33:47.397Z,11.13
2023-04-14T06:36:16.844Z,10.13
2023-04-14T06:38:43.744Z,12.50
2023-04-14T06:41:10.588Z,7.63
2023-04-14T06:43:37.224Z,9.40
2023-04-14T06:46:03.994Z,9.13
2023-04-14T06:48:30.775Z,7.90
2023-04-14T06:50:57.505Z,11.60
2023-04-14T06:53:24.234Z,9.47
2023-04-14T06:55:59.618Z,10.00
2023-04-14T06:58:27.682Z,9.67
2023-04-14T07:00:56.197Z,8.57
2023-04-14T07:03:41.591Z,9.40
2023-04-14T07:06:11.612Z,8.83
2023-04-14T07:08:40.513Z,9.57
2023-04-14T07:11:09.530Z,10.03
2023-04-14T07:13:37.023Z,11.80
2023-04-14T07:16:04.328Z,11.97
2023-04-14T07:18:31.764Z,10.70
2023-04-14T07:21:00.408Z,12.90
2023-04-14T07:23:27.857Z,9.70
2023-04-14T07:25:58.808Z,10.07
2023-04-14T07:28:26.913Z,10.90
2023-04-14T07:30:54.148Z,11.23
2023-04-14T07:33:22.497Z,10.00
2023-04-14T07:36:01.230Z,10.63
2023-04-14T07:38:28.743Z,13.40
2023-04-14T07:40:55.546Z,9.13
2023-04-14T07:43:22.676Z,9.63
2023-04-14T07:45:49.711Z,11.90
2023-04-14T07:48:19.444Z,14.53
2023-04-14T07:50:49.692Z,11.83
2023-04-14T07:53:16.379Z,13.20
2023-04-14T07:55:43.039Z,14.03
2023-04-14T07:58:09.821Z,9.50
2023-04-14T08:00:36.645Z,9.90
2023-04-14T08:03:03.483Z,9.23
2023-04-14T08:05:30.352Z,9.67
2023-04-14T08:07:57.091Z,11.97
2023-04-14T08:10:23.908Z,8.33
2023-04-14T08:12:50.615Z,13.67
2023-04-14T08:15:17.267Z,10.60
2023-04-14T08:17:44.359Z,7.90
2023-04-14T08:20:11.364Z,8.77
2023-04-14T08:22:38.088Z,10.00
2023-04-14T08:25:05.030Z,9.63
2023-04-14T08:27:31.878Z,10.50
2023-04-14T08:29:58.501Z,11.77
2023-04-14T08:32:25.286Z,11.70
2023-04-14T08:35:39.047Z,13.53
2023-04-14T08:37:41.910Z,14.30
2023-04-14T08:40:12.466Z,11.07
2023-04-14T08:42:39.916Z,11.07
2023-04-14T08:45:07.570Z,14.53
2023-04-14T08:47:36.247Z,11.47
2023-04-14T08:50:10.319Z,8.80
2023-04-14T08:52:41.590Z,16.00
2023-04-14T08:55:11.153Z,13.27
2023-04-14T08:57:41.216Z,14.03
2023-04-14T09:00:09.678Z,16.33
2023-04-14T09:02:40.289Z,9.90
2023-04-14T09:05:08.056Z,10.83
2023-04-14T09:07:35.958Z,13.67
2023-04-14T09:10:03.336Z,12.40
2023-04-14T09:12:32.244Z,9.53
2023-04-14T09:14:59.311Z,11.47
2023-04-14T09:17:26.886Z,14.00
2023-04-14T09:20:35.614Z,13.47
2023-04-14T09:22:40.662Z,26.50
2023-04-14T09:25:08.842Z,15.03
2023-04-14T09:27:35.948Z,14.80
2023-04-14T09:30:03.506Z,14.23
2023-04-14T09:32:31.060Z,22.47
2023-04-14T09:34:58.522Z,23.23
2023-04-14T09:37:26.110Z,18.20
2023-04-14T09:39:55.419Z,28.23
2023-04-14T09:42:39.600Z,36.03
2023-04-14T09:45:06.947Z,55.53
2023-04-14T09:47:33.835Z,22.23
2023-04-14T09:50:04.065Z,21.93
2023-04-14T09:52:42.086Z,16.53
2023-04-14T09:55:13.327Z,10.70
2023-04-14T09:57:51.804Z,16.97
2023-04-14T10:00:21.645Z,14.70
2023-04-14T10:03:01.392Z,8.97
2023-04-14T10:05:32.017Z,12.63
2023-04-14T10:08:05.387Z,11.93
2023-04-14T10:10:32.702Z,14.00
2023-04-14T10:13:00.449Z,8.67
2023-04-14T10:15:27.662Z,10.20
2023-04-14T10:17:54.488Z,8.70
2023-04-14T10:20:21.988Z,9.77
2023-04-14T10:22:49.751Z,9.83
2023-04-14T10:25:18.157Z,9.60
2023-04-14T10:27:45.472Z,9.73
2023-04-14T10:30:12.498Z,9.13
2023-04-14T10:32:40.646Z,9.13
2023-04-14T10:35:10.158Z,8.07
2023-04-14T10:37:37.258Z,10.37
2023-04-14T10:40:06.902Z,11.23
2023-04-14T10:42:54.268Z,10.40
2023-04-14T10:45:22.043Z,10.97
2023-04-14T10:47:50.097Z,14.87
2023-04-14T10:50:18.275Z,11.57
2023-04-14T10:52:56.138Z,7.93
2023-04-14T10:55:26.883Z,6.83
2023-04-14T10:58:04.124Z,13.47
2023-04-14T11:00:32.358Z,8.70
2023-04-14T11:03:06.417Z,24.83
2023-04-14T11:05:34.371Z,27.33
2023-04-14T11:08:11.930Z,15.53
2023-04-14T11:10:38.799Z,19.53
2023-04-14T11:13:08.542Z,26.40
2023-04-14T11:15:49.231Z,26.53
2023-04-14T11:18:20.609Z,15.33
2023-04-14T11:20:47.768Z,13.00
2023-04-14T11:23:15.280Z,13.00
2023-04-14T11:25:42.684Z,13.10
2023-04-14T11:28:09.387Z,10.97
2023-04-14T11:30:36.000Z,12.03
2023-04-14T11:33:02.881Z,15.73
2023-04-14T11:35:31.226Z,12.73
2023-04-14T11:38:00.372Z,11.20
2023-04-14T11:40:28.002Z,16.00
2023-04-14T11:42:58.882Z,9.77
2023-04-14T11:45:29.749Z,10.40
2023-04-14T11:48:04.363Z,9.23
2023-04-14T11:50:33.263Z,14.17
2023-04-14T11:53:00.677Z,12.93
2023-04-14T11:55:28.068Z,7.53
2023-04-14T11:57:58.052Z,11.13
2023-04-14T12:00:25.215Z,11.63
2023-04-14T12:02:52.495Z,9.77
2023-04-14T12:05:30.298Z,10.30
2023-04-14T12:08:02.122Z,7.60
2023-04-14T12:10:29.191Z,6.50
2023-04-14T12:13:04.277Z,7.43
2023-04-14T12:15:38.639Z,4.37
2023-04-14T12:18:08.447Z,8.93
2023-04-14T12:20:44.944Z,5.87
2023-04-14T12:23:11.920Z,12.13
2023-04-14T12:25:39.442Z,7.00
2023-04-14T12:28:06.436Z,6.37
2023-04-14T12:30:34.301Z,7.47
2023-04-14T12:33:09.531Z,5.67
2023-04-14T12:35:36.244Z,5.20
2023-04-14T12:38:09.741Z,4.27
2023-04-14T12:40:38.116Z,5.93
2023-04-14T12:43:05.188Z,9.33
2023-04-14T12:45:41.511Z,22.60
2023-04-14T12:48:08.354Z,9.90
2023-04-14T12:50:35.235Z,11.20
2023-04-14T12:53:02.802Z,15.17
2023-04-14T12:55:31.123Z,5.73
2023-04-14T12:57:58.871Z,9.30
2023-04-14T13:00:27.633Z,11.97
2023-04-14T13:02:55.635Z,13.73
2023-04-14T13:05:22.925Z,9.20
2023-04-14T13:07:49.671Z,10.13
2023-04-14T13:10:16.398Z,7.23
2023-04-14T13:12:43.022Z,10.07
2023-04-14T13:15:22.448Z,4.97
2023-04-14T13:17:57.006Z,4.83
2023-04-14T13:20:23.685Z,6.60
2023-04-14T13:22:50.319Z,8.37
2023-04-14T13:25:16.929Z,8.27
2023-04-14T13:27:43.579Z,14.43
2023-04-14T13:30:10.850Z,5.23
2023-04-14T13:32:37.650Z,2.53
2023-04-14T13:35:04.693Z,4.27
2023-04-14T13:37:31.473Z,5.77
2023-04-14T13:39:58.081Z,6.90
2023-04-14T13:42:24.788Z,4.57
2023-04-14T13:44:51.482Z,6.47
2023-04-14T13:47:19.002Z,5.33
2023-04-14T13:49:45.664Z,7.50
2023-04-14T13:52:12.331Z,6.80
2023-04-14T13:54:39.047Z,5.83
2023-04-14T13:57:05.905Z,5.33
2023-04-14T13:59:33.028Z,6.80
2023-04-14T14:01:59.940Z,6.80
2023-04-14T14:04:27.345Z,9.17
2023-04-14T14:06:54.206Z,9.10
2023-04-14T14:09:21.061Z,8.10
2023-04-14T14:11:47.701Z,8.20
2023-04-14T14:14:14.904Z,9.23
2023-04-14T14:16:42.021Z,10.30
2023-04-14T14:19:10.940Z,8.60
2023-04-14T14:21:37.967Z,7.60
2023-04-14T14:24:05.134Z,3.93
2023-04-14T14:26:31.917Z,12.07
2023-04-14T14:28:58.587Z,19.17
2023-04-14T14:31:25.502Z,17.33
2023-04-14T14:33:52.192Z,8.63
2023-04-14T14:36:18.950Z,45.77
2023-04-14T14:38:45.785Z,18.93
2023-04-14T14:41:12.537Z,40.30
2023-04-14T14:43:39.228Z,20.17
2023-04-14T14:46:06.120Z,7.13
2023-04-14T14:48:32.873Z,7.73
2023-04-14T14:50:59.547Z,7.67
2023-04-14T14:53:26.070Z,9.03
2023-04-14T14:55:52.808Z,7.80
2023-04-14T14:58:19.389Z,7.80
2023-04-14T15:00:47.336Z,5.47
2023-04-14T15:03:14.385Z,6.60
2023-04-14T15:05:41.540Z,15.20
2023-04-14T15:08:08.578Z,5.63
2023-04-14T15:10:35.217Z,8.50
2023-04-14T15:13:01.972Z,8.38
2023-04-14T15:15:29.009Z,4.35
2023-04-14T15:17:56.179Z,4.35
2023-04-14T15:20:22.884Z,5.78
2023-04-14T15:22:49.623Z,4.47
2023-04-14T15:25:16.229Z,5.25
2023-04-14T15:27:42.932Z,5.95
2023-04-14T15:30:10.434Z,6.38
2023-04-14T15:32:37.141Z,3.53
2023-04-14T15:35:03.921Z,2.97
2023-04-14T15:37:30.723Z,4.20
2023-04-14T15:39:57.375Z,5.20
2023-04-14T15:42:24.000Z,4.70
2023-04-14T15:44:53.560Z,5.80
2023-04-14T15:47:20.300Z,7.67
2023-04-14T15:49:49.936Z,4.70
2023-04-14T15:52:33.625Z,3.97
2023-04-14T15:55:00.337Z,8.93
2023-04-14T15:57:26.956Z,4.67
2023-04-14T15:59:53.547Z,5.27
2023-04-14T16:02:20.230Z,5.53
2023-04-14T16:04:47.094Z,5.03
2023-04-14T16:07:13.928Z,4.90
2023-04-14T16:09:40.592Z,3.53
2023-04-14T16:12:07.512Z,4.10
2023-04-14T16:14:35.299Z,4.90
2023-04-14T16:17:02.224Z,6.77
2023-04-14T16:19:28.871Z,7.57
2023-04-14T16:21:57.047Z,7.83
2023-04-14T16:24:23.770Z,3.90
2023-04-14T16:26:50.340Z,4.50
2023-04-14T16:29:16.956Z,6.37
2023-04-14T16:31:43.860Z,5.10
2023-04-14T16:34:10.519Z,6.90
2023-04-14T16:36:38.644Z,4.63
2023-04-14T16:39:06.115Z,4.73
2023-04-14T16:41:33.434Z,5.90
2023-04-14T16:44:00.706Z,5.27
2023-04-14T16:46:27.601Z,6.30
2023-04-14T16:48:54.215Z,5.83
2023-04-14T16:51:21.000Z,4.50
2023-04-14T16:53:48.588Z,4.80
2023-04-14T16:56:15.716Z,4.70
2023-04-14T16:58:42.455Z,6.07
2023-04-14T17:01:09.514Z,8.50
2023-04-14T17:03:37.023Z,6.57
2023-04-14T17:06:04.039Z,4.53
2023-04-14T17:08:30.782Z,4.73
2023-04-14T17:10:58.054Z,6.57
2023-04-14T17:13:24.831Z,5.23
2023-04-14T17:15:58.961Z,5.47
2023-04-14T17:18:33.392Z,5.17
2023-04-14T17:21:00.169Z,3.50
2023-04-14T17:23:27.324Z,3.97
2023-04-14T17:25:55.852Z,5.30
2023-04-14T17:28:22.775Z,4.57
2023-04-14T17:30:50.094Z,3.23
2023-04-14T17:33:17.336Z,7.13
2023-04-14T17:35:44.143Z,5.63
2023-04-14T17:38:10.803Z,5.47
2023-04-14T17:40:37.576Z,6.70
2023-04-14T17:43:07.258Z,6.73
2023-04-14T17:45:35.035Z,7.43
2023-04-14T17:48:01.735Z,8.17
2023-04-14T17:50:29.284Z,4.40
2023-04-14T17:52:57.395Z,3.47
2023-04-14T17:55:24.194Z,3.87
2023-04-14T17:57:51.492Z,5.20
2023-04-14T18:00:18.859Z,6.13
2023-04-14T18:02:45.695Z,6.67
2023-04-14T18:05:13.155Z,5.17
2023-04-14T18:07:41.804Z,10.07
2023-04-14T18:10:08.772Z,4.70
2023-04-14T18:12:36.554Z,9.60
2023-04-14T18:15:07.087Z,7.93
2023-04-14T18:17:36.587Z,8.03
2023-04-14T18:20:04.160Z,5.37
2023-04-14T18:22:31.539Z,7.87
2023-04-14T18:24:58.277Z,9.50
2023-04-14T18:29:54.576Z,6.27
2023-04-14T18:32:22.241Z,5.67
2023-04-14T18:34:48.848Z,5.97
2023-04-14T18:37:15.833Z,5.93
2023-04-14T18:39:42.844Z,8.30
2023-04-14T18:42:10.173Z,6.50
2023-04-14T18:44:36.862Z,10.10
2023-04-14T18:47:03.505Z,5.03
2023-04-14T18:49:30.165Z,7.33
2023-04-14T18:51:56.801Z,7.60
2023-04-14T18:54:23.830Z,5.10
2023-04-14T18:56:50.796Z,6.63
2023-04-14T18:59:18.531Z,6.00
2023-04-14T19:01:45.289Z,5.33
2023-04-14T19:04:12.138Z,5.47
2023-04-14T19:06:40.341Z,10.30
2023-04-14T19:09:07.599Z,6.07
2023-04-14T19:11:36.073Z,7.80
2023-04-14T19:14:06.073Z,3.57
2023-04-14T19:16:33.664Z,6.10
2023-04-14T19:19:00.873Z,6.77
2023-04-14T19:21:28.084Z,5.43
2023-04-14T19:23:56.977Z,5.17
2023-04-14T19:26:24.267Z,5.70
2023-04-14T19:28:52.806Z,7.17
2023-04-14T19:31:21.474Z,8.73
2023-04-14T19:33:49.155Z,9.97
2023-04-14T19:36:17.839Z,6.60
2023-04-14T19:38:44.765Z,9.70
2023-04-14T19:41:12.049Z,7.90
2023-04-14T19:43:38.968Z,11.27
2023-04-14T19:46:10.326Z,7.33
2023-04-14T19:48:37.104Z,9.10
2023-04-14T19:51:04.004Z,6.90
2023-04-14T19:53:30.958Z,9.33
2023-04-14T19:55:59.412Z,5.57
2023-04-14T19:58:28.375Z,10.07
2023-04-14T20:00:59.052Z,7.07
2023-04-14T20:03:26.972Z,10.07
2023-04-14T20:05:57.576Z,7.67
2023-04-14T20:08:27.798Z,16.77
2023-04-14T20:10:54.995Z,7.33
2023-04-14T20:13:24.322Z,9.17
2023-04-14T20:15:53.792Z,8.07
2023-04-14T20:18:20.902Z,9.77
2023-04-14T20:20:48.575Z,6.00
2023-04-14T20:23:15.928Z,8.07
2023-04-14T20:25:44.033Z,9.77
2023-04-14T20:28:10.905Z,4.70
2023-04-14T20:30:37.995Z,7.03
2023-04-14T20:33:05.887Z,6.27
2023-04-14T20:35:37.283Z,5.43
2023-04-14T20:38:05.722Z,8.27
2023-04-14T20:40:33.272Z,5.80
2023-04-14T20:43:02.657Z,7.23
2023-04-14T20:45:29.883Z,6.50
2023-04-14T20:47:57.232Z,9.33
2023-04-14T20:50:24.223Z,6.70
2023-04-14T20:52:51.234Z,8.53
2023-04-14T20:55:19.347Z,6.63
2023-04-14T20:57:47.857Z,8.23
2023-04-14T21:00:16.538Z,8.27
2023-04-14T21:02:44.495Z,6.43
2023-04-14T21:05:12.018Z,5.83
2023-04-14T21:07:43.672Z,8.43
2023-04-14T21:10:11.738Z,7.77
2023-04-14T21:15:00.454Z,6.20
2023-04-14T21:15:50.666Z,5.57
2023-04-14T21:18:13.941Z,6.00
2023-04-14T21:20:41.384Z,6.30
2023-04-14T21:23:08.152Z,8.43
2023-04-14T21:25:35.482Z,9.37
2023-04-14T21:28:02.425Z,5.53
2023-04-14T21:30:29.512Z,5.17
2023-04-14T21:32:56.532Z,7.43
2023-04-14T21:35:23.378Z,9.77
2023-04-14T21:37:50.027Z,5.57
2023-04-14T21:40:20.261Z,7.00
2023-04-14T21:42:47.433Z,8.03
2023-04-14T21:45:14.632Z,9.13
2023-04-14T21:47:41.550Z,8.37
2023-04-14T21:50:09.611Z,10.33
2023-04-14T21:52:37.130Z,8.00
2023-04-14T21:55:04.255Z,7.77
2023-04-14T21:57:44.363Z,6.87
2023-04-14T22:00:17.757Z,11.17
2023-04-14T22:02:45.459Z,7.37
2023-04-14T22:05:15.142Z,7.27
2023-04-14T22:07:41.974Z,8.17
2023-04-14T22:10:08.973Z,8.50
2023-04-14T22:12:36.166Z,7.27
2023-04-14T22:15:08.897Z,10.23
2023-04-14T22:17:37.470Z,10.00
2023-04-14T22:20:09.821Z,9.93
2023-04-14T22:22:36.834Z,9.40
2023-04-14T22:25:04.654Z,8.37
2023-04-14T22:27:33.595Z,10.37
2023-04-14T22:30:01.401Z,6.90
2023-04-14T22:32:30.516Z,6.53
2023-04-14T22:34:57.533Z,6.23
2023-04-14T22:37:24.334Z,6.60
2023-04-14T22:39:51.503Z,11.17
2023-04-14T22:42:18.106Z,13.93
2023-04-14T22:44:44.970Z,9.93
2023-04-14T22:47:11.890Z,8.27
2023-04-14T22:49:38.709Z,7.80
2023-04-14T22:52:05.527Z,10.37
2023-04-14T22:54:32.681Z,10.07
2023-04-14T22:56:59.648Z,6.33
2023-04-14T22:59:26.886Z,9.53
2023-04-14T23:01:53.797Z,9.93
2023-04-14T23:04:20.650Z,6.43
2023-04-14T23:06:47.339Z,6.70
2023-04-14T23:09:14.075Z,5.87
2023-04-14T23:11:40.820Z,7.60
2023-04-14T23:14:08.354Z,11.33
2023-04-14T23:16:35.115Z,10.57
2023-04-14T23:19:02.984Z,6.23
2023-04-14T23:21:30.186Z,7.43
2023-04-14T23:23:56.858Z,9.77
2023-04-14T23:26:23.565Z,6.67
2023-04-14T23:28:50.437Z,9.17
2023-04-14T23:31:17.913Z,8.87
2023-04-14T23:33:45.498Z,8.17
2023-04-14T23:36:13.463Z,8.47
2023-04-14T23:38:40.205Z,10.17
2023-04-14T23:41:07.156Z,8.67
2023-04-14T23:43:34.658Z,7.13
2023-04-14T23:46:01.845Z,9.43
2023-04-14T23:48:28.672Z,8.57
2023-04-14T23:51:00.567Z,10.23
2023-04-14T23:53:41.054Z,6.07
2023-04-14T23:56:07.982Z,7.50
2023-04-14T23:58:34.737Z,14.23
